createdAt,value
2022-10-04T00:04:16.215Z,102267.91
2022-10-04T00:09:23.427Z,102275.63
2022-10-04T00:14:30.895Z,102271.28
2022-10-04T00:19:38.299Z,102275.34
2022-10-04T00:25:02.255Z,102278.25
2022-10-04T00:30:03.668Z,102271.06
2022-10-04T00:35:25.049Z,102256.59
2022-10-04T00:40:31.489Z,102260.25
2022-10-04T00:45:50.949Z,102246.97
2022-10-04T00:51:00.179Z,102238.00
2022-10-04T00:56:03.965Z,102226.34
2022-10-04T01:01:07.007Z,102225.78
2022-10-04T01:06:11.333Z,102214.22
2022-10-04T01:11:29.115Z,102200.84
2022-10-04T01:16:33.565Z,102206.88
2022-10-04T01:21:35.114Z,102212.34
2022-10-04T01:26:47.273Z,102209.94
2022-10-04T01:31:51.121Z,102201.44
2022-10-04T01:36:55.805Z,102181.00
2022-10-04T01:42:09.583Z,102173.22
2022-10-04T01:47:40.302Z,102173.00
2022-10-04T01:52:48.367Z,102160.03
2022-10-04T01:57:53.979Z,102151.41
2022-10-04T02:03:00.952Z,102146.97
2022-10-04T02:08:05.509Z,102144.38
2022-10-04T02:13:15.698Z,102125.03
2022-10-04T02:18:20.667Z,102110.06
2022-10-04T02:23:24.197Z,102099.28
2022-10-04T02:28:25.849Z,102107.63
2022-10-04T02:33:27.406Z,102107.22
2022-10-04T02:38:35.686Z,102086.78
2022-10-04T02:43:48.673Z,102091.00
2022-10-04T02:48:55.390Z,102099.53
2022-10-04T02:54:14.953Z,102081.53
2022-10-04T02:59:17.994Z,102069.31
2022-10-04T03:04:25.623Z,102058.94
2022-10-04T03:09:29.917Z,102064.75
2022-10-04T03:14:32.495Z,102073.41
2022-10-04T03:19:35.461Z,102061.03
2022-10-04T03:24:53.493Z,102052.41
2022-10-04T03:29:59.238Z,102045.75
2022-10-04T03:35:04.494Z,102047.78
2022-10-04T03:40:09.901Z,102038.44
2022-10-04T03:45:17.115Z,102040.59
2022-10-04T03:50:26.683Z,102039.88
2022-10-04T03:55:34.201Z,102038.31
2022-10-04T04:00:42.180Z,102025.66
2022-10-04T04:05:53.230Z,102026.78
2022-10-04T04:11:02.788Z,102018.00
2022-10-04T04:16:05.586Z,102027.41
2022-10-04T04:21:08.460Z,102012.47
2022-10-04T04:26:34.981Z,102025.25
2022-10-04T04:31:51.506Z,102025.41
2022-10-04T04:36:59.334Z,102013.78
2022-10-04T04:42:05.912Z,102011.03
2022-10-04T04:47:35.365Z,102004.25
2022-10-04T04:52:37.969Z,102003.53
2022-10-04T04:57:39.953Z,101999.78
2022-10-04T05:02:56.143Z,102006.59
2022-10-04T05:08:24.259Z,101998.38
2022-10-04T05:13:46.742Z,101997.66
2022-10-04T05:18:53.729Z,101998.50
2022-10-04T05:23:57.504Z,102007.03
2022-10-04T05:29:12.168Z,102016.81
2022-10-04T05:34:38.727Z,102014.22
2022-10-04T05:39:50.299Z,102018.28
2022-10-04T05:44:57.394Z,102006.31
2022-10-04T05:50:00.936Z,102006.75
2022-10-04T05:55:23.532Z,101998.56
2022-10-04T06:00:36.957Z,101986.75
2022-10-04T06:05:51.991Z,101987.59
2022-10-04T06:11:09.373Z,101972.03
2022-10-04T06:16:32.067Z,101967.75
2022-10-04T06:22:03.789Z,101965.16
2022-10-04T06:27:11.066Z,101963.44
2022-10-04T06:32:21.226Z,101951.47
2022-10-04T06:38:03.842Z,101961.09
2022-10-04T06:43:23.662Z,101958.94
2022-10-04T06:48:48.834Z,101951.13
2022-10-04T06:54:34.342Z,101976.59
2022-10-04T06:59:47.827Z,101971.94
2022-10-04T07:05:09.721Z,101962.22
2022-10-04T07:10:33.095Z,101952.81
2022-10-04T07:15:59.545Z,101971.28
2022-10-04T07:21:15.579Z,101970.75
2022-10-04T07:26:27.957Z,101972.16
2022-10-04T07:31:35.318Z,101962.91
2022-10-04T07:36:50.979Z,101971.25
2022-10-04T07:41:55.795Z,101978.50
2022-10-04T07:47:05.361Z,101977.50
2022-10-04T07:52:32.288Z,101982.97
2022-10-04T07:58:14.085Z,101972.66
2022-10-04T08:03:45.376Z,101982.00
2022-10-04T08:09:08.196Z,101983.44
2022-10-04T08:14:42.065Z,101979.06
2022-10-04T08:20:30.885Z,101983.81
2022-10-04T08:25:58.336Z,101969.53
2022-10-04T08:31:27.747Z,101963.47
2022-10-04T08:36:56.917Z,101971.81
2022-10-04T08:42:16.423Z,101962.00
2022-10-04T08:47:29.320Z,101958.00
2022-10-04T08:52:59.143Z,101955.69
2022-10-04T08:58:16.609Z,101962.06
2022-10-04T09:03:42.104Z,101956.75
2022-10-04T09:09:21.052Z,101965.88
2022-10-04T09:14:34.683Z,101963.16
2022-10-04T09:19:54.066Z,101963.41
2022-10-04T09:25:14.367Z,101957.91
2022-10-04T09:30:25.186Z,101943.81
2022-10-04T09:35:32.356Z,101962.53
2022-10-04T09:40:49.859Z,101964.75
2022-10-04T09:46:09.674Z,101941.72
2022-10-04T09:51:47.794Z,101943.94
2022-10-04T09:57:13.662Z,101948.56
2022-10-04T10:03:06.629Z,101958.03
2022-10-04T10:08:41.185Z,101962.63
2022-10-04T10:14:15.437Z,101949.50
2022-10-04T10:19:52.602Z,101951.38
2022-10-04T10:25:18.953Z,101938.31
2022-10-04T10:30:30.969Z,101929.53
2022-10-04T10:36:04.819Z,101941.69
2022-10-04T10:41:40.289Z,101947.00
2022-10-04T10:46:52.031Z,101932.28
2022-10-04T10:51:56.469Z,101925.38
2022-10-04T10:57:38.020Z,101926.00
2022-10-04T11:03:23.170Z,101906.00
2022-10-04T11:09:00.109Z,101908.56
2022-10-04T11:14:32.530Z,101908.03
2022-10-04T11:19:42.921Z,101908.22
2022-10-04T11:24:56.345Z,101912.59
2022-10-04T11:30:29.882Z,101901.91
2022-10-04T11:35:44.903Z,101904.47
2022-10-04T11:41:06.030Z,101912.19
2022-10-04T11:46:27.152Z,101892.78
2022-10-04T11:52:04.525Z,101878.91
2022-10-04T11:57:39.899Z,101879.59
2022-10-04T12:03:05.465Z,101879.97
2022-10-04T12:08:33.146Z,101854.16
2022-10-04T12:13:52.792Z,101844.31
2022-10-04T12:19:29.521Z,101846.31
2022-10-04T12:24:59.512Z,101831.75
2022-10-04T12:30:16.458Z,101822.44
2022-10-04T12:35:29.243Z,101825.97
2022-10-04T12:40:43.058Z,101815.38
2022-10-04T12:46:03.301Z,101802.53
2022-10-04T12:51:22.149Z,101805.84
2022-10-04T12:56:42.511Z,101784.34
2022-10-04T13:02:02.274Z,101804.56
2022-10-04T13:07:42.514Z,101797.31
2022-10-04T13:13:10.408Z,101788.50
2022-10-04T13:18:53.294Z,101766.84
2022-10-04T13:24:05.085Z,101757.03
2022-10-04T13:29:24.679Z,101751.16
2022-10-04T13:34:41.111Z,101734.81
2022-10-04T13:39:50.468Z,101729.88
2022-10-04T13:45:28.974Z,101740.75
2022-10-04T13:50:30.440Z,101746.47
2022-10-04T13:56:18.441Z,101733.03
2022-10-04T14:02:17.011Z,101737.91
2022-10-04T14:07:27.427Z,101742.91
2022-10-04T14:12:47.610Z,101757.38
2022-10-04T14:18:04.294Z,101761.28
2022-10-04T14:23:20.175Z,101750.25
2022-10-04T14:28:50.581Z,101742.84
2022-10-04T14:34:10.390Z,101731.59
2022-10-04T14:39:40.232Z,101739.72
2022-10-04T14:45:18.286Z,101742.91
2022-10-04T14:50:58.074Z,101755.16
2022-10-04T14:56:24.145Z,101749.66
2022-10-04T15:01:27.871Z,101746.88
2022-10-04T15:06:51.943Z,101747.25
2022-10-04T15:12:25.320Z,101729.09
2022-10-04T15:17:33.466Z,101728.91
2022-10-04T15:22:44.435Z,101721.47
2022-10-04T15:27:52.202Z,101725.13
2022-10-04T15:33:16.119Z,101732.34
2022-10-04T15:39:02.889Z,101725.78
2022-10-04T15:44:15.592Z,101717.81
2022-10-04T15:49:30.417Z,101716.31
2022-10-04T15:54:43.833Z,101715.25
2022-10-04T16:00:13.273Z,101708.69
2022-10-04T16:05:29.602Z,101722.47
2022-10-04T16:11:02.199Z,101715.91
2022-10-04T16:16:15.748Z,101715.91
2022-10-04T16:21:48.289Z,101720.03
2022-10-04T16:26:54.287Z,101708.16
2022-10-04T16:32:04.070Z,101713.66
2022-10-04T16:37:23.562Z,101710.41
2022-10-04T16:42:43.225Z,101705.94
2022-10-04T16:47:47.374Z,101720.75
2022-10-04T16:52:54.728Z,101720.06
2022-10-04T16:58:14.873Z,101707.84
2022-10-04T17:03:36.542Z,101707.34
2022-10-04T17:08:49.606Z,101708.22
2022-10-04T17:13:57.004Z,101709.44
2022-10-04T17:19:13.803Z,101710.47
2022-10-04T17:24:45.410Z,101710.84
2022-10-04T17:30:08.266Z,101725.19
2022-10-04T17:35:46.088Z,101727.75
2022-10-04T17:40:59.621Z,101732.03
2022-10-04T17:46:14.087Z,101730.13
2022-10-04T17:51:49.222Z,101727.75
2022-10-04T17:56:58.827Z,101708.16
2022-10-04T18:02:11.049Z,101723.63
2022-10-04T18:07:21.335Z,101733.44
2022-10-04T18:12:35.354Z,101717.09
2022-10-04T18:17:49.536Z,101712.44
2022-10-04T18:22:57.898Z,101711.22
2022-10-04T18:28:08.556Z,101710.16
2022-10-04T18:33:15.317Z,101697.28
2022-10-04T18:38:28.039Z,101693.47
2022-10-04T18:43:31.773Z,101684.34
2022-10-04T18:48:54.388Z,101667.16
2022-10-04T18:54:25.021Z,101666.09
2022-10-04T18:59:56.468Z,101655.47
2022-10-04T19:05:11.663Z,101653.28
2022-10-04T19:10:29.873Z,101646.72
2022-10-04T19:15:40.312Z,101633.16
2022-10-04T19:20:52.361Z,101636.94
2022-10-04T19:26:30.610Z,101648.31
2022-10-04T19:31:38.103Z,101649.50
2022-10-04T19:37:03.197Z,101651.06
2022-10-04T19:42:12.142Z,101627.47
2022-10-04T19:47:35.090Z,101632.97
2022-10-04T19:52:53.337Z,101638.03
2022-10-04T19:58:06.552Z,101636.47
2022-10-04T20:03:14.860Z,101643.03
2022-10-04T20:09:00.720Z,101642.63
2022-10-04T20:14:10.102Z,101641.13
2022-10-04T20:19:27.591Z,101653.19
2022-10-04T20:24:38.266Z,101644.94
2022-10-04T20:29:39.651Z,101653.19
2022-10-04T20:34:41.962Z,101656.81
2022-10-04T20:39:43.377Z,101656.81
2022-10-04T20:44:53.822Z,101651.28
2022-10-04T20:49:57.759Z,101647.50
2022-10-04T20:55:01.665Z,101637.72
2022-10-04T21:00:05.676Z,101647.28
2022-10-04T21:05:15.233Z,101650.06
2022-10-04T21:10:19.966Z,101648.53
2022-10-04T21:15:22.555Z,101639.22
2022-10-04T21:20:47.993Z,101639.03
2022-10-04T21:25:50.381Z,101643.53
2022-10-04T21:30:51.908Z,101646.44
2022-10-04T21:35:53.359Z,101637.34
2022-10-04T21:40:55.963Z,101639.72
2022-10-04T21:45:57.565Z,101635.94
2022-10-04T21:50:59.061Z,101630.41
2022-10-04T21:56:00.612Z,101640.78
2022-10-04T22:01:02.087Z,101633.72
2022-10-04T22:06:03.577Z,101625.47
2022-10-04T22:11:05.112Z,101617.41
2022-10-04T22:16:06.959Z,101612.56
2022-10-04T22:21:08.504Z,101597.09
2022-10-04T22:26:19.199Z,101595.72
2022-10-04T22:31:25.550Z,101583.88
2022-10-04T22:36:38.227Z,101589.56
2022-10-04T22:41:43.622Z,101593.72
2022-10-04T22:46:48.722Z,101587.38
2022-10-04T22:51:53.013Z,101593.59
2022-10-04T22:56:54.460Z,101591.88
2022-10-04T23:01:58.697Z,101591.03
2022-10-04T23:07:00.139Z,101595.03
2022-10-04T23:12:02.152Z,101585.91
2022-10-04T23:17:31.646Z,101577.66
2022-10-04T23:22:33.171Z,101575.75
2022-10-04T23:27:34.960Z,101586.94
2022-10-04T23:32:36.440Z,101581.44
2022-10-04T23:37:37.962Z,101581.63
2022-10-04T23:42:40.060Z,101580.09
2022-10-04T23:47:41.558Z,101569.28
2022-10-04T23:52:43.251Z,101556.38
2022-10-04T23:57:45.114Z,101569.47
